createdAt,value
2023-02-08T00:01:47.069Z,103368.84
2023-02-08T00:04:19.339Z,103365.50
2023-02-08T00:06:51.698Z,103357.88
2023-02-08T00:09:32.942Z,103364.09
2023-02-08T00:12:08.063Z,103361.88
2023-02-08T00:14:39.070Z,103360.50
2023-02-08T00:17:12.260Z,103356.88
2023-02-08T00:19:43.819Z,103348.84
2023-02-08T00:22:13.464Z,103348.34
2023-02-08T00:24:45.063Z,103348.84
2023-02-08T00:27:19.850Z,103352.84
2023-02-08T00:29:57.912Z,103351.03
2023-02-08T00:32:27.047Z,103347.41
2023-02-08T00:34:58.183Z,103352.44
2023-02-08T00:37:40.292Z,103358.50
2023-02-08T00:40:13.113Z,103357.38
2023-02-08T00:42:49.945Z,103359.94
2023-02-08T00:45:32.651Z,103359.66
2023-02-08T00:48:02.294Z,103353.31
2023-02-08T00:50:34.016Z,103351.91
2023-02-08T00:53:04.076Z,103358.34
2023-02-08T00:55:33.675Z,103367.63
2023-02-08T00:58:08.552Z,103360.00
2023-02-08T01:00:49.859Z,103350.75
2023-02-08T01:03:29.911Z,103361.84
2023-02-08T01:06:03.388Z,103358.97
2023-02-08T01:08:40.029Z,103357.81
2023-02-08T01:11:15.004Z,103356.09
2023-02-08T01:13:54.141Z,103348.13
2023-02-08T01:16:34.217Z,103358.44
2023-02-08T01:19:08.984Z,103350.69
2023-02-08T01:21:42.957Z,103349.94
2023-02-08T01:24:28.750Z,103353.28
2023-02-08T01:27:01.536Z,103355.72
2023-02-08T01:29:36.645Z,103348.59
2023-02-08T01:32:06.413Z,103357.88
2023-02-08T01:34:39.449Z,103347.69
2023-02-08T01:37:10.723Z,103350.13
2023-02-08T01:39:46.243Z,103344.88
2023-02-08T01:42:20.761Z,103341.09
2023-02-08T01:45:29.012Z,103345.75
2023-02-08T01:48:12.809Z,103355.16
2023-02-08T01:50:54.802Z,103354.72
2023-02-08T01:53:36.191Z,103343.09
2023-02-08T01:56:09.890Z,103347.50
2023-02-08T01:58:51.071Z,103347.97
2023-02-08T02:01:28.190Z,103350.31
2023-02-08T02:04:05.840Z,103344.59
2023-02-08T02:06:39.046Z,103347.94
2023-02-08T02:09:19.212Z,103347.06
2023-02-08T02:11:53.813Z,103332.47
2023-02-08T02:14:26.930Z,103339.56
2023-02-08T02:17:16.297Z,103326.69
2023-02-08T02:19:56.862Z,103322.97
2023-02-08T02:23:15.246Z,103325.06
2023-02-08T02:26:30.287Z,103329.94
2023-02-08T02:29:31.052Z,103342.69
2023-02-08T02:32:17.147Z,103331.06
2023-02-08T02:35:02.953Z,103331.69
2023-02-08T02:37:51.039Z,103330.03
2023-02-08T02:40:31.102Z,103334.69
2023-02-08T02:43:31.217Z,103333.66
2023-02-08T02:49:03.871Z,103331.16
2023-02-08T02:51:59.618Z,103334.31
2023-02-08T02:57:36.385Z,103337.84
2023-02-08T03:00:29.991Z,103341.34
2023-02-08T03:03:41.539Z,103350.59
2023-02-08T03:06:38.046Z,103341.47
2023-02-08T03:09:37.182Z,103342.59
2023-02-08T03:12:26.709Z,103345.69
2023-02-08T03:18:33.487Z,103353.91
2023-02-08T03:21:11.824Z,103359.41
2023-02-08T03:23:48.175Z,103361.97
2023-02-08T03:26:34.524Z,103355.63
2023-02-08T03:29:26.049Z,103358.06
2023-02-08T03:32:24.161Z,103367.31
2023-02-08T03:35:07.128Z,103371.34
2023-02-08T03:37:43.668Z,103372.47
2023-02-08T03:40:22.209Z,103378.25
2023-02-08T03:42:54.994Z,103376.03
2023-02-08T03:45:28.144Z,103373.94
2023-02-08T03:48:02.084Z,103374.44
2023-02-08T03:51:23.491Z,103377.66
2023-02-08T03:54:06.194Z,103382.66
2023-02-08T03:57:07.997Z,103379.25
2023-02-08T05:02:43.029Z,103361.75
2023-02-08T05:05:12.303Z,103357.22
2023-02-08T05:07:41.310Z,103353.19
2023-02-08T05:10:20.165Z,103355.63
2023-02-08T05:12:51.054Z,103353.72
2023-02-08T05:15:21.949Z,103357.06
2023-02-08T05:17:57.992Z,103354.25
2023-02-08T05:20:27.032Z,103351.28
2023-02-08T05:22:55.927Z,103351.28
2023-02-08T05:25:44.248Z,103360.69
2023-02-08T05:28:14.807Z,103361.22
2023-02-08T05:30:57.599Z,103357.34
2023-02-08T05:33:28.453Z,103355.81
2023-02-08T05:35:59.038Z,103364.84
2023-02-08T05:38:34.944Z,103363.66
2023-02-08T05:41:07.342Z,103372.78
2023-02-08T05:43:37.095Z,103371.84
2023-02-08T05:46:08.342Z,103362.88
2023-02-08T05:48:39.364Z,103369.28
2023-02-08T05:51:13.854Z,103373.09
2023-02-08T05:53:43.592Z,103370.53
2023-02-08T05:56:17.203Z,103369.44
2023-02-08T05:58:46.362Z,103365.59
2023-02-08T06:01:17.376Z,103369.47
2023-02-08T06:03:52.079Z,103370.38
2023-02-08T06:06:29.171Z,103368.06
2023-02-08T06:09:00.142Z,103376.34
2023-02-08T06:11:29.282Z,103369.53
2023-02-08T06:13:58.484Z,103379.69
2023-02-08T06:16:27.551Z,103381.25
2023-02-08T06:19:03.986Z,103391.22
2023-02-08T06:21:34.945Z,103385.28
2023-02-08T06:24:08.059Z,103378.69
2023-02-08T06:26:36.968Z,103383.75
2023-02-08T06:29:06.020Z,103387.56
2023-02-08T06:31:36.201Z,103385.69
2023-02-08T06:34:18.249Z,103382.56
2023-02-08T06:36:49.537Z,103389.53
2023-02-08T06:39:21.366Z,103385.69
2023-02-08T06:41:51.375Z,103390.22
2023-02-08T06:44:28.001Z,103384.44
2023-02-08T06:46:57.178Z,103401.59
2023-02-08T06:49:29.802Z,103401.06
2023-02-08T06:52:00.732Z,103397.09
2023-02-08T06:54:36.448Z,103398.16
2023-02-08T06:57:08.442Z,103395.97
2023-02-08T06:59:37.279Z,103393.81
2023-02-08T07:02:08.348Z,103399.34
2023-02-08T07:04:38.897Z,103400.25
2023-02-08T07:07:20.717Z,103400.78
2023-02-08T07:09:51.338Z,103405.94
2023-02-08T07:12:20.169Z,103413.97
2023-02-08T07:14:50.717Z,103419.91
2023-02-08T07:17:19.632Z,103411.16
2023-02-08T07:20:03.007Z,103423.81
2023-02-08T07:22:33.826Z,103428.34
2023-02-08T07:25:07.328Z,103427.31
2023-02-08T07:27:58.895Z,103426.19
2023-02-08T07:30:36.545Z,103421.28
2023-02-08T07:33:07.779Z,103426.19
2023-02-08T07:35:38.394Z,103423.28
2023-02-08T07:38:07.474Z,103427.91
2023-02-08T07:40:36.356Z,103420.56
2023-02-08T07:43:08.325Z,103427.56
2023-02-08T07:45:48.196Z,103428.84
2023-02-08T07:48:20.338Z,103423.81
2023-02-08T07:54:04.898Z,103423.84
2023-02-08T07:56:48.081Z,103415.28
2023-02-08T07:59:17.926Z,103423.06
2023-02-08T08:01:47.118Z,103421.78
2023-02-08T08:04:32.369Z,103418.16
2023-02-08T08:07:08.581Z,103419.72
2023-02-08T08:09:46.197Z,103421.91
2023-02-08T08:12:16.124Z,103423.22
2023-02-08T08:14:47.350Z,103430.69
2023-02-08T08:17:19.582Z,103433.16
2023-02-08T08:19:48.581Z,103436.63
2023-02-08T08:22:32.356Z,103433.22
2023-02-08T08:25:01.396Z,103430.34
2023-02-08T08:27:45.092Z,103435.50
2023-02-08T08:30:16.803Z,103435.75
2023-02-08T08:32:50.342Z,103438.03
2023-02-08T08:35:25.520Z,103433.59
2023-02-08T08:38:00.440Z,103434.34
2023-02-08T08:40:34.397Z,103434.03
2023-02-08T08:43:19.564Z,103437.25
2023-02-08T08:45:55.195Z,103428.25
2023-02-08T08:48:26.061Z,103427.19
2023-02-08T08:50:58.692Z,103426.09
2023-02-08T08:53:37.905Z,103424.78
2023-02-08T08:56:16.213Z,103418.50
2023-02-08T08:58:47.454Z,103426.75
2023-02-08T09:01:18.965Z,103439.97
2023-02-08T09:03:49.911Z,103438.75
2023-02-08T09:06:23.581Z,103439.47
2023-02-08T09:09:01.688Z,103442.63
2023-02-08T09:11:39.244Z,103441.53
2023-02-08T09:14:16.444Z,103437.25
2023-02-08T09:16:48.183Z,103441.47
2023-02-08T09:19:19.306Z,103443.19
2023-02-08T09:21:48.493Z,103433.13
2023-02-08T09:24:19.497Z,103434.28
2023-02-08T09:26:48.832Z,103437.34
2023-02-08T09:29:20.158Z,103438.69
2023-02-08T09:31:49.308Z,103441.75
2023-02-08T09:34:20.564Z,103447.72
2023-02-08T09:36:49.579Z,103447.06
2023-02-08T09:39:23.178Z,103447.97
2023-02-08T09:42:26.834Z,103439.84
2023-02-08T09:45:18.329Z,103438.63
2023-02-08T09:48:01.645Z,103437.91
2023-02-08T09:50:36.228Z,103443.47
2023-02-08T09:53:17.032Z,103441.19
2023-02-08T09:55:53.310Z,103441.31
2023-02-08T09:58:28.806Z,103437.03
2023-02-08T10:00:59.042Z,103442.66
2023-02-08T10:03:37.132Z,103435.75
2023-02-08T10:06:10.792Z,103442.41
2023-02-08T10:08:49.192Z,103434.75
2023-02-08T10:11:46.379Z,103440.38
2023-02-08T10:14:45.150Z,103439.69
2023-02-08T10:17:34.902Z,103434.84
2023-02-08T10:20:10.546Z,103440.06
2023-02-08T10:22:51.642Z,103444.78
2023-02-08T10:25:43.440Z,103445.00
2023-02-08T10:28:39.542Z,103447.91
2023-02-08T10:31:19.895Z,103444.06
2023-02-08T10:33:56.318Z,103443.59
2023-02-08T10:36:33.416Z,103434.31
2023-02-08T10:39:05.342Z,103431.81
2023-02-08T10:41:37.796Z,103427.25
2023-02-08T10:44:30.422Z,103438.88
2023-02-08T10:47:12.375Z,103426.09
2023-02-08T10:49:50.362Z,103418.72
2023-02-08T10:52:21.907Z,103422.44
2023-02-08T10:54:51.090Z,103422.56
2023-02-08T10:57:24.987Z,103417.47
2023-02-08T11:00:01.819Z,103425.97
2023-02-08T11:02:34.669Z,103422.81
2023-02-08T11:05:08.194Z,103428.31
2023-02-08T11:07:37.571Z,103411.78
2023-02-08T11:10:25.851Z,103411.78
2023-02-08T11:12:59.584Z,103412.34
2023-02-08T11:15:35.642Z,103410.94
2023-02-08T11:18:08.258Z,103402.97
2023-02-08T11:20:41.423Z,103400.53
2023-02-08T11:23:23.865Z,103399.75
2023-02-08T11:25:57.272Z,103399.97
2023-02-08T11:28:33.464Z,103393.28
2023-02-08T11:31:13.800Z,103386.56
2023-02-08T11:34:01.004Z,103380.66
2023-02-08T11:36:33.863Z,103386.25
2023-02-08T11:39:05.613Z,103382.16
2023-02-08T11:41:37.721Z,103381.75
2023-02-08T11:44:08.780Z,103379.66
2023-02-08T11:46:48.628Z,103373.66
2023-02-08T11:49:25.359Z,103377.44
2023-02-08T11:51:54.882Z,103376.97
2023-02-08T11:54:39.328Z,103375.53
2023-02-08T11:57:15.398Z,103373.03
2023-02-08T11:59:44.959Z,103377.56
2023-02-08T12:02:39.329Z,103376.22
2023-02-08T12:05:15.103Z,103376.22
2023-02-08T12:08:00.464Z,103374.72
2023-02-08T12:11:08.590Z,103379.53
2023-02-08T12:13:54.758Z,103375.00
2023-02-08T12:16:51.012Z,103368.09
2023-02-08T12:19:53.808Z,103362.38
2023-02-08T12:22:27.132Z,103356.13
2023-02-08T12:25:12.198Z,103358.94
2023-02-08T12:27:49.830Z,103351.03
2023-02-08T12:30:27.177Z,103352.28
2023-02-08T12:33:25.842Z,103345.56
2023-02-08T12:36:16.822Z,103338.94
2023-02-08T12:39:26.120Z,103335.72
2023-02-08T12:46:05.043Z,103313.41
2023-02-08T12:49:41.079Z,103319.34
2023-02-08T12:56:27.665Z,103311.81
2023-02-08T12:59:13.439Z,103304.88
2023-02-08T15:42:18.932Z,103213.22
2023-02-08T15:44:50.964Z,103215.44
2023-02-08T15:47:27.857Z,103214.88
2023-02-08T15:50:41.256Z,103211.69
2023-02-08T15:53:52.252Z,103210.19
2023-02-08T15:56:36.341Z,103210.63
2023-02-08T15:59:45.589Z,103210.03
2023-02-08T16:19:04.782Z,103204.63
2023-02-08T17:09:43.957Z,103198.09
2023-02-08T17:12:22.812Z,103197.41
2023-02-08T17:14:56.472Z,103192.09
2023-02-08T17:18:13.215Z,103197.00
2023-02-08T17:20:42.899Z,103194.06
2023-02-08T17:23:12.562Z,103189.13
2023-02-08T17:25:53.922Z,103186.13
2023-02-08T17:28:23.996Z,103191.81
2023-02-08T17:30:56.134Z,103182.19
2023-02-08T17:33:33.814Z,103196.66
2023-02-08T17:36:08.669Z,103182.91
2023-02-08T17:38:44.499Z,103180.91
2023-02-08T17:41:32.678Z,103194.00
2023-02-08T17:44:45.611Z,103182.25
2023-02-08T17:47:28.513Z,103177.56
2023-02-08T17:50:54.433Z,103179.84
2023-02-08T17:53:45.552Z,103181.53
2023-02-08T17:56:36.674Z,103180.94
2023-02-08T17:59:21.351Z,103183.41
2023-02-08T18:01:55.875Z,103179.41
2023-02-08T18:04:31.444Z,103173.66
2023-02-08T18:07:12.835Z,103185.09
2023-02-08T18:09:54.377Z,103180.25
2023-02-08T18:12:30.367Z,103184.00
2023-02-08T18:14:59.601Z,103176.00
2023-02-08T18:17:54.208Z,103175.56
2023-02-08T18:20:30.700Z,103171.75
2023-02-08T18:22:59.842Z,103170.88
2023-02-08T18:25:38.772Z,103161.94
2023-02-08T18:28:18.747Z,103156.63
2023-02-08T18:30:54.169Z,103158.22
2023-02-08T18:33:23.356Z,103154.53
2023-02-08T18:35:55.349Z,103144.34
2023-02-08T18:38:24.385Z,103147.97
2023-02-08T18:40:56.332Z,103149.75
2023-02-08T18:43:33.912Z,103153.59
2023-02-08T18:46:05.433Z,103153.25
2023-02-08T18:48:36.609Z,103147.78
2023-02-08T18:51:09.435Z,103145.09
2023-02-08T18:53:40.590Z,103139.34
2023-02-08T18:56:12.557Z,103138.22
2023-02-08T18:58:43.032Z,103140.16
2023-02-08T19:38:39.577Z,103096.28
2023-02-08T19:41:13.476Z,103099.75
2023-02-08T19:43:48.263Z,103093.78
2023-02-08T19:46:22.184Z,103081.50
2023-02-08T19:48:55.040Z,103082.53
2023-02-08T19:51:27.877Z,103080.28
2023-02-08T19:54:03.528Z,103080.97
2023-02-08T19:56:33.904Z,103079.63
2023-02-08T19:59:05.376Z,103074.09
2023-02-08T20:01:44.374Z,103078.16
2023-02-08T20:04:13.709Z,103068.81
2023-02-08T20:06:45.076Z,103070.72
2023-02-08T20:09:17.880Z,103063.63
2023-02-08T20:12:02.022Z,103056.06
2023-02-08T20:14:33.954Z,103056.28
2023-02-08T20:17:04.006Z,103055.03
2023-02-08T20:19:48.251Z,103041.88
2023-02-08T20:22:20.317Z,103032.97
2023-02-08T20:24:50.967Z,103028.28
2023-02-08T20:27:23.145Z,103021.75
2023-02-08T20:29:52.634Z,103030.66
2023-02-08T20:32:24.331Z,103026.28
2023-02-08T20:34:59.493Z,103033.50
2023-02-08T20:37:31.570Z,103028.84
2023-02-08T20:40:02.353Z,103029.75
2023-02-08T20:42:31.942Z,103028.31
2023-02-08T20:45:00.994Z,103032.47
2023-02-08T20:47:38.790Z,103025.34
2023-02-08T20:50:23.768Z,103011.84
2023-02-08T20:52:56.634Z,103006.78
2023-02-08T20:55:29.255Z,102999.69
2023-02-08T20:57:58.487Z,103005.09
2023-02-08T21:00:48.601Z,103002.88
2023-02-08T21:03:17.668Z,103007.94
2023-02-08T21:05:46.728Z,103012.75
2023-02-08T21:08:15.932Z,103010.75
2023-02-08T21:10:49.057Z,103003.63
2023-02-08T21:13:18.183Z,102996.53
2023-02-08T21:15:49.381Z,102996.78
2023-02-08T21:18:20.930Z,102998.59
2023-02-08T21:20:52.241Z,102999.25
2023-02-08T21:23:23.529Z,102991.59
2023-02-08T21:25:53.991Z,102981.22
2023-02-08T21:28:25.490Z,102980.31
2023-02-08T21:30:58.255Z,102969.53
2023-02-08T21:33:28.496Z,102972.47
2023-02-08T21:35:57.866Z,102975.38
2023-02-08T21:38:34.874Z,102963.81
2023-02-08T21:41:09.711Z,102962.78
2023-02-08T21:43:39.003Z,102956.94
2023-02-08T21:46:09.823Z,102950.50
2023-02-08T21:49:03.312Z,102952.75
2023-02-08T21:51:54.187Z,102959.50
2023-02-08T21:54:45.857Z,102962.66
2023-02-08T21:57:38.259Z,102960.97
2023-02-08T22:00:10.585Z,102968.16
2023-02-08T22:02:43.579Z,102961.81
2023-02-08T22:05:30.212Z,102960.16
2023-02-08T22:08:00.517Z,102891.28
2023-02-08T22:10:31.210Z,102952.41
2023-02-08T22:13:02.241Z,102951.97
2023-02-08T22:15:32.208Z,102943.84
2023-02-08T22:18:04.298Z,102876.44
2023-02-08T22:20:33.550Z,102942.25
2023-02-08T22:23:03.361Z,102932.47
2023-02-08T22:25:32.464Z,102927.84
2023-02-08T22:28:03.037Z,102928.75
2023-02-08T22:30:32.260Z,102929.41
2023-02-08T22:33:01.290Z,102920.53
2023-02-08T22:35:32.651Z,102922.88
2023-02-08T22:38:01.483Z,102919.28
2023-02-08T22:40:30.405Z,102916.22
2023-02-08T22:42:59.628Z,102916.09
2023-02-08T22:45:29.869Z,102902.84
2023-02-08T22:48:01.365Z,102898.72
2023-02-08T22:50:30.421Z,102897.59
2023-02-08T22:53:03.675Z,102893.31
2023-02-08T22:55:34.463Z,102892.97
2023-02-08T22:58:09.297Z,102895.88
2023-02-08T23:00:47.123Z,102707.34
2023-02-08T23:03:20.746Z,102891.16
2023-02-08T23:06:02.855Z,102894.94
2023-02-08T23:08:34.482Z,102895.63
2023-02-08T23:11:04.585Z,102895.38
2023-02-08T23:13:34.927Z,102884.78
2023-02-08T23:16:08.056Z,102880.31
2023-02-08T23:18:41.653Z,102879.81
2023-02-08T23:21:20.884Z,102880.59
2023-02-08T23:23:51.270Z,102878.47
2023-02-08T23:26:22.301Z,102881.16
2023-02-08T23:28:55.090Z,102875.09
2023-02-08T23:31:25.922Z,102871.28
2023-02-08T23:34:03.737Z,102873.28
2023-02-08T23:36:32.601Z,102872.63
2023-02-08T23:39:06.056Z,102872.63
2023-02-08T23:41:35.115Z,102870.72
2023-02-08T23:44:12.527Z,102859.47
2023-02-08T23:46:42.784Z,102858.44
2023-02-08T23:49:11.693Z,102855.41
2023-02-08T23:51:40.530Z,102857.75
2023-02-08T23:54:11.465Z,102854.16
2023-02-08T23:56:41.841Z,102852.13
2023-02-08T23:59:12.715Z,102847.25
